sensor_id;sensor_type;location;lat;lon;timestamp;noise_LAeq;noise_LA_min;noise_LA_max;noise_LA01;noise_LA95
76382;Laerm;65202;52.520;10.528;2023-11-21T00:02:27;34.55;30.59;42.88;;
76382;Laerm;65202;52.520;10.528;2023-11-21T00:04:55;34.79;30.63;54.72;;
76382;Laerm;65202;52.520;10.528;2023-11-21T00:07:22;34.57;30.56;50.92;;
76382;Laerm;65202;52.520;10.528;2023-11-21T00:09:49;36.46;30.82;50.09;;
76382;Laerm;65202;52.520;10.528;2023-11-21T00:12:16;37.29;30.93;55.53;;
76382;Laerm;65202;52.520;10.528;2023-11-21T00:14:44;34.90;31.26;49.62;;
76382;Laerm;65202;52.520;10.528;2023-11-21T00:17:12;35.22;31.09;49.81;;
76382;Laerm;65202;52.520;10.528;2023-11-21T00:19:39;35.36;30.93;53.53;;
76382;Laerm;65202;52.520;10.528;2023-11-21T00:22:06;38.25;30.62;49.31;;
76382;Laerm;65202;52.520;10.528;2023-11-21T00:24:34;37.02;30.98;54.20;;
76382;Laerm;65202;52.520;10.528;2023-11-21T00:27:02;36.93;31.49;49.72;;
76382;Laerm;65202;52.520;10.528;2023-11-21T00:29:29;35.12;30.63;58.01;;
76382;Laerm;65202;52.520;10.528;2023-11-21T00:31:56;34.87;30.52;56.13;;
76382;Laerm;65202;52.520;10.528;2023-11-21T00:34:24;38.31;31.54;51.13;;
76382;Laerm;65202;52.520;10.528;2023-11-21T00:36:51;35.55;31.38;56.58;;
76382;Laerm;65202;52.520;10.528;2023-11-21T00:39:18;35.29;31.28;56.60;;
76382;Laerm;65202;52.520;10.528;2023-11-21T00:41:45;35.09;31.37;50.13;;
76382;Laerm;65202;52.520;10.528;2023-11-21T00:44:12;37.91;31.07;53.53;;
76382;Laerm;65202;52.520;10.528;2023-11-21T00:46:40;36.40;31.08;54.75;;
76382;Laerm;65202;52.520;10.528;2023-11-21T00:49:07;35.36;30.94;57.19;;
76382;Laerm;65202;52.520;10.528;2023-11-21T00:51:34;35.18;30.76;53.09;;
76382;Laerm;65202;52.520;10.528;2023-11-21T00:54:03;34.96;30.73;53.30;;
76382;Laerm;65202;52.520;10.528;2023-11-21T00:56:30;38.84;31.12;58.64;;
76382;Laerm;65202;52.520;10.528;2023-11-21T00:58:57;35.08;30.89;57.23;;
76382;Laerm;65202;52.520;10.528;2023-11-21T01:01:24;35.17;30.87;55.35;;
76382;Laerm;65202;52.520;10.528;2023-11-21T01:03:52;35.45;30.78;57.74;;
76382;Laerm;65202;52.520;10.528;2023-11-21T01:06:19;36.88;30.79;50.89;;
76382;Laerm;65202;52.520;10.528;2023-11-21T01:08:46;37.27;30.91;58.50;;
76382;Laerm;65202;52.520;10.528;2023-11-21T01:11:14;34.61;30.68;45.81;;
76382;Laerm;65202;52.520;10.528;2023-11-21T01:13:42;35.16;31.13;56.22;;
76382;Laerm;65202;52.520;10.528;2023-11-21T01:16:09;35.31;30.60;59.33;;
76382;Laerm;65202;52.520;10.528;2023-11-21T01:18:37;38.43;30.99;53.06;;
76382;Laerm;65202;52.520;10.528;2023-11-21T01:21:04;35.29;30.84;54.00;;
76382;Laerm;65202;52.520;10.528;2023-11-21T01:23:32;34.76;30.48;52.25;;
76382;Laerm;65202;52.520;10.528;2023-11-21T01:25:59;34.80;30.55;53.08;;
76382;Laerm;65202;52.520;10.528;2023-11-21T01:28:26;36.23;30.53;56.69;;
76382;Laerm;65202;52.520;10.528;2023-11-21T01:30:53;37.66;30.83;52.15;;
76382;Laerm;65202;52.520;10.528;2023-11-21T01:33:23;34.73;30.72;51.13;;
76382;Laerm;65202;52.520;10.528;2023-11-21T01:35:52;35.10;30.66;58.08;;
76382;Laerm;65202;52.520;10.528;2023-11-21T01:38:21;34.59;30.42;55.55;;
76382;Laerm;65202;52.520;10.528;2023-11-21T01:40:49;38.18;30.71;51.03;;
76382;Laerm;65202;52.520;10.528;2023-11-21T01:43:16;34.67;30.74;48.19;;
76382;Laerm;65202;52.520;10.528;2023-11-21T01:45:44;34.69;30.53;48.60;;
76382;Laerm;65202;52.520;10.528;2023-11-21T01:48:13;34.78;30.63;56.80;;
76382;Laerm;65202;52.520;10.528;2023-11-21T01:50:41;34.70;30.70;48.59;;
76382;Laerm;65202;52.520;10.528;2023-11-21T01:53:10;38.32;31.14;49.63;;
76382;Laerm;65202;52.520;10.528;2023-11-21T01:55:40;34.88;30.94;51.18;;
76382;Laerm;65202;52.520;10.528;2023-11-21T01:58:08;34.61;30.77;53.92;;
76382;Laerm;65202;52.520;10.528;2023-11-21T02:00:36;34.53;30.69;46.51;;
76382;Laerm;65202;52.520;10.528;2023-11-21T02:03:05;38.06;30.56;48.15;;
76382;Laerm;65202;52.520;10.528;2023-11-21T02:05:34;34.87;30.30;49.32;;
76382;Laerm;65202;52.520;10.528;2023-11-21T02:08:02;35.08;30.86;56.35;;
76382;Laerm;65202;52.520;10.528;2023-11-21T02:10:30;34.78;30.84;48.07;;
76382;Laerm;65202;52.520;10.528;2023-11-21T02:12:58;34.82;30.93;50.76;;
76382;Laerm;65202;52.520;10.528;2023-11-21T02:15:27;38.23;31.09;49.62;;
76382;Laerm;65202;52.520;10.528;2023-11-21T02:17:56;34.74;31.01;48.35;;
76382;Laerm;65202;52.520;10.528;2023-11-21T02:20:25;35.38;30.86;60.22;;
76382;Laerm;65202;52.520;10.528;2023-11-21T02:22:55;35.55;30.75;62.16;;
76382;Laerm;65202;52.520;10.528;2023-11-21T02:25:29;38.25;30.87;55.56;;
76382;Laerm;65202;52.520;10.528;2023-11-21T02:28:00;35.27;30.75;56.52;;
76382;Laerm;65202;52.520;10.528;2023-11-21T02:30:28;34.91;30.94;50.41;;
76382;Laerm;65202;52.520;10.528;2023-11-21T02:32:55;34.98;30.84;52.66;;
76382;Laerm;65202;52.520;10.528;2023-11-21T02:35:26;35.06;30.61;52.79;;
76382;Laerm;65202;52.520;10.528;2023-11-21T02:37:54;38.42;31.45;49.65;;
76382;Laerm;65202;52.520;10.528;2023-11-21T02:40:22;35.16;30.94;54.77;;
76382;Laerm;65202;52.520;10.528;2023-11-21T02:42:51;34.77;31.01;50.96;;
76382;Laerm;65202;52.520;10.528;2023-11-21T02:45:20;34.74;30.66;51.73;;
76382;Laerm;65202;52.520;10.528;2023-11-21T02:47:51;37.95;31.12;52.53;;
76382;Laerm;65202;52.520;10.528;2023-11-21T02:50:24;36.22;32.10;50.78;;
76382;Laerm;65202;52.520;10.528;2023-11-21T02:52:51;37.33;32.24;53.51;;
76382;Laerm;65202;52.520;10.528;2023-11-21T02:55:19;36.73;32.63;51.53;;
76382;Laerm;65202;52.520;10.528;2023-11-21T02:57:46;37.15;33.09;56.66;;
76382;Laerm;65202;52.520;10.528;2023-11-21T03:00:13;38.93;32.35;51.69;;
76382;Laerm;65202;52.520;10.528;2023-11-21T03:02:42;36.44;32.19;54.20;;
76382;Laerm;65202;52.520;10.528;2023-11-21T03:05:10;36.44;32.55;54.99;;
76382;Laerm;65202;52.520;10.528;2023-11-21T03:07:38;36.16;32.06;53.81;;
76382;Laerm;65202;52.520;10.528;2023-11-21T03:10:08;37.99;32.28;53.71;;
76382;Laerm;65202;52.520;10.528;2023-11-21T03:12:39;37.68;32.17;57.71;;
76382;Laerm;65202;52.520;10.528;2023-11-21T03:15:08;35.95;32.11;51.38;;
76382;Laerm;65202;52.520;10.528;2023-11-21T03:17:35;37.12;32.45;55.47;;
76382;Laerm;65202;52.520;10.528;2023-11-21T03:20:04;37.91;34.19;51.64;;
76382;Laerm;65202;52.520;10.528;2023-11-21T03:22:32;41.46;34.16;56.52;;
76382;Laerm;65202;52.520;10.528;2023-11-21T03:25:00;40.81;34.15;56.41;;
76382;Laerm;65202;52.520;10.528;2023-11-21T03:27:28;41.52;33.94;59.30;;
76382;Laerm;65202;52.520;10.528;2023-11-21T03:29:55;41.44;34.99;58.99;;
76382;Laerm;65202;52.520;10.528;2023-11-21T03:32:22;42.34;35.36;63.08;;
76382;Laerm;65202;52.520;10.528;2023-11-21T03:34:58;49.52;35.94;66.88;;
76382;Laerm;65202;52.520;10.528;2023-11-21T03:37:26;40.91;35.56;59.42;;
76382;Laerm;65202;52.520;10.528;2023-11-21T03:40:10;41.23;37.07;61.34;;
76382;Laerm;65202;52.520;10.528;2023-11-21T03:42:38;43.72;36.85;64.92;;
76382;Laerm;65202;52.520;10.528;2023-11-21T03:45:06;42.66;37.13;60.46;;
76382;Laerm;65202;52.520;10.528;2023-11-21T03:47:34;40.63;36.57;58.18;;
76382;Laerm;65202;52.520;10.528;2023-11-21T03:50:01;41.34;36.78;61.18;;
76382;Laerm;65202;52.520;10.528;2023-11-21T03:52:28;41.34;37.05;58.24;;
76382;Laerm;65202;52.520;10.528;2023-11-21T03:54:56;42.62;36.66;64.31;;
76382;Laerm;65202;52.520;10.528;2023-11-21T03:57:23;40.43;36.92;58.68;;
76382;Laerm;65202;52.520;10.528;2023-11-21T03:59:50;40.65;37.07;54.57;;
76382;Laerm;65202;52.520;10.528;2023-11-21T04:02:17;40.95;37.23;58.51;;
76382;Laerm;65202;52.520;10.528;2023-11-21T04:04:45;40.41;36.23;61.48;;
76382;Laerm;65202;52.520;10.528;2023-11-21T04:07:12;47.73;36.43;63.68;;
76382;Laerm;65202;52.520;10.528;2023-11-21T04:09:40;39.11;35.24;57.63;;
76382;Laerm;65202;52.520;10.528;2023-11-21T04:12:08;38.68;35.65;56.53;;
76382;Laerm;65202;52.520;10.528;2023-11-21T04:14:38;38.61;35.31;60.86;;
76382;Laerm;65202;52.520;10.528;2023-11-21T04:17:05;39.60;35.13;55.56;;
76382;Laerm;65202;52.520;10.528;2023-11-21T04:19:33;45.15;35.50;62.13;;
76382;Laerm;65202;52.520;10.528;2023-11-21T04:22:00;37.78;35.17;55.99;;
76382;Laerm;65202;52.520;10.528;2023-11-21T04:24:28;38.31;35.16;60.67;;
76382;Laerm;65202;52.520;10.528;2023-11-21T04:26:55;37.73;35.27;51.95;;
76382;Laerm;65202;52.520;10.528;2023-11-21T04:29:22;40.03;35.67;55.63;;
76382;Laerm;65202;52.520;10.528;2023-11-21T04:31:52;37.74;34.94;56.27;;
76382;Laerm;65202;52.520;10.528;2023-11-21T04:34:19;37.94;35.38;55.18;;
76382;Laerm;65202;52.520;10.528;2023-11-21T04:36:46;38.02;35.09;58.11;;
76382;Laerm;65202;52.520;10.528;2023-11-21T04:39:14;40.34;35.21;58.86;;
76382;Laerm;65202;52.520;10.528;2023-11-21T04:41:41;44.43;35.46;62.29;;
76382;Laerm;65202;52.520;10.528;2023-11-21T04:44:08;37.88;35.39;52.18;;
76382;Laerm;65202;52.520;10.528;2023-11-21T04:46:35;40.92;35.09;54.22;;
76382;Laerm;65202;52.520;10.528;2023-11-21T04:49:03;39.25;35.82;57.11;;
76382;Laerm;65202;52.520;10.528;2023-11-21T04:51:30;40.70;35.91;66.12;;
76382;Laerm;65202;52.520;10.528;2023-11-21T04:53:59;38.05;35.48;58.46;;
76382;Laerm;65202;52.520;10.528;2023-11-21T04:56:26;37.71;35.50;50.43;;
76382;Laerm;65202;52.520;10.528;2023-11-21T04:58:54;41.00;35.07;64.00;;
76382;Laerm;65202;52.520;10.528;2023-11-21T05:01:21;39.20;34.42;53.18;;
76382;Laerm;65202;52.520;10.528;2023-11-21T05:03:48;38.73;35.46;54.60;;
76382;Laerm;65202;52.520;10.528;2023-11-21T05:06:16;38.54;34.43;54.20;;
76382;Laerm;65202;52.520;10.528;2023-11-21T05:08:43;45.35;35.10;62.36;;
76382;Laerm;65202;52.520;10.528;2023-11-21T05:11:10;42.20;35.36;63.83;;
76382;Laerm;65202;52.520;10.528;2023-11-21T05:13:37;40.20;35.62;55.69;;
76382;Laerm;65202;52.520;10.528;2023-11-21T05:16:06;43.57;35.18;55.23;;
76382;Laerm;65202;52.520;10.528;2023-11-21T05:18:34;47.72;35.16;62.27;;
76382;Laerm;65202;52.520;10.528;2023-11-21T05:21:02;38.09;35.40;61.95;;
76382;Laerm;65202;52.520;10.528;2023-11-21T05:23:29;40.95;33.92;51.35;;
76382;Laerm;65202;52.520;10.528;2023-11-21T05:25:56;39.39;35.68;50.38;;
76382;Laerm;65202;52.520;10.528;2023-11-21T05:28:24;38.31;35.51;54.64;;
76382;Laerm;65202;52.520;10.528;2023-11-21T05:30:51;38.73;35.99;57.29;;
76382;Laerm;65202;52.520;10.528;2023-11-21T05:33:33;43.44;36.33;59.49;;
76382;Laerm;65202;52.520;10.528;2023-11-21T05:36:00;44.76;36.28;61.74;;
76382;Laerm;65202;52.520;10.528;2023-11-21T05:38:28;39.76;35.59;64.43;;
76382;Laerm;65202;52.520;10.528;2023-11-21T05:40:56;37.98;35.45;43.69;;
76382;Laerm;65202;52.520;10.528;2023-11-21T05:43:25;46.31;35.61;66.65;;
76382;Laerm;65202;52.520;10.528;2023-11-21T05:45:53;41.28;36.00;64.11;;
76382;Laerm;65202;52.520;10.528;2023-11-21T05:48:20;44.62;35.77;55.60;;
76382;Laerm;65202;52.520;10.528;2023-11-21T05:50:48;38.95;35.34;62.15;;
76382;Laerm;65202;52.520;10.528;2023-11-21T05:53:16;38.82;35.05;54.58;;
76382;Laerm;65202;52.520;10.528;2023-11-21T05:55:43;38.30;36.03;54.59;;
76382;Laerm;65202;52.520;10.528;2023-11-21T05:58:11;39.69;35.48;49.21;;
76382;Laerm;65202;52.520;10.528;2023-11-21T06:00:39;39.44;35.99;64.58;;
76382;Laerm;65202;52.520;10.528;2023-11-21T06:03:06;41.53;36.45;55.02;;
76382;Laerm;65202;52.520;10.528;2023-11-21T06:05:35;38.45;35.85;47.87;;
76382;Laerm;65202;52.520;10.528;2023-11-21T06:08:02;38.24;35.23;52.82;;
76382;Laerm;65202;52.520;10.528;2023-11-21T06:10:29;44.03;36.39;59.70;;
76382;Laerm;65202;52.520;10.528;2023-11-21T06:12:57;40.22;36.21;52.72;;
76382;Laerm;65202;52.520;10.528;2023-11-21T06:15:29;40.64;35.35;63.40;;
76382;Laerm;65202;52.520;10.528;2023-11-21T06:17:57;39.31;35.41;56.12;;
76382;Laerm;65202;52.520;10.528;2023-11-21T06:20:24;39.22;35.72;49.08;;
76382;Laerm;65202;52.520;10.528;2023-11-21T06:22:51;40.11;36.09;47.01;;
76382;Laerm;65202;52.520;10.528;2023-11-21T06:25:19;44.20;35.97;59.56;;
76382;Laerm;65202;52.520;10.528;2023-11-21T06:27:48;45.49;35.88;69.13;;
76382;Laerm;65202;52.520;10.528;2023-11-21T06:30:19;44.65;35.59;62.08;;
76382;Laerm;65202;52.520;10.528;2023-11-21T06:32:47;42.50;36.13;53.10;;
76382;Laerm;65202;52.520;10.528;2023-11-21T06:35:15;48.11;35.93;63.61;;
76382;Laerm;65202;52.520;10.528;2023-11-21T06:37:45;48.71;36.82;63.79;;
76382;Laerm;65202;52.520;10.528;2023-11-21T06:40:18;39.09;35.63;55.36;;
76382;Laerm;65202;52.520;10.528;2023-11-21T06:42:47;41.81;35.42;57.29;;
76382;Laerm;65202;52.520;10.528;2023-11-21T06:45:16;46.25;36.55;60.82;;
76382;Laerm;65202;52.520;10.528;2023-11-21T06:47:44;39.22;35.78;50.34;;
76382;Laerm;65202;52.520;10.528;2023-11-21T06:50:12;46.57;35.94;62.75;;
76382;Laerm;65202;52.520;10.528;2023-11-21T06:52:39;41.56;36.34;55.06;;
76382;Laerm;65202;52.520;10.528;2023-11-21T06:55:07;44.60;36.34;60.40;;
76382;Laerm;65202;52.520;10.528;2023-11-21T06:57:38;42.09;36.94;56.70;;
76382;Laerm;65202;52.520;10.528;2023-11-21T07:00:06;40.59;36.24;56.76;;
76382;Laerm;65202;52.520;10.528;2023-11-21T07:02:36;39.93;36.27;57.67;;
76382;Laerm;65202;52.520;10.528;2023-11-21T07:05:04;40.73;35.55;53.05;;
76382;Laerm;65202;52.520;10.528;2023-11-21T07:07:31;49.30;37.94;63.16;;
76382;Laerm;65202;52.520;10.528;2023-11-21T07:09:59;44.83;36.85;58.50;;
76382;Laerm;65202;52.520;10.528;2023-11-21T07:12:33;44.58;36.46;57.81;;
76382;Laerm;65202;52.520;10.528;2023-11-21T07:15:01;48.43;36.19;65.67;;
76382;Laerm;65202;52.520;10.528;2023-11-21T07:17:29;46.77;36.59;65.87;;
76382;Laerm;65202;52.520;10.528;2023-11-21T07:19:56;45.37;35.39;58.30;;
76382;Laerm;65202;52.520;10.528;2023-11-21T07:22:24;43.97;35.53;58.68;;
76382;Laerm;65202;52.520;10.528;2023-11-21T07:24:52;42.76;35.84;54.63;;
76382;Laerm;65202;52.520;10.528;2023-11-21T07:27:19;43.50;36.33;59.26;;
76382;Laerm;65202;52.520;10.528;2023-11-21T07:29:46;43.61;36.03;58.18;;
76382;Laerm;65202;52.520;10.528;2023-11-21T07:32:15;43.70;36.22;57.32;;
76382;Laerm;65202;52.520;10.528;2023-11-21T07:34:43;39.59;36.23;51.45;;
76382;Laerm;65202;52.520;10.528;2023-11-21T07:37:10;45.23;36.78;59.88;;
76382;Laerm;65202;52.520;10.528;2023-11-21T07:39:37;40.87;35.54;54.76;;
76382;Laerm;65202;52.520;10.528;2023-11-21T07:42:09;40.81;35.43;51.71;;
76382;Laerm;65202;52.520;10.528;2023-11-21T07:44:36;47.20;35.75;62.89;;
76382;Laerm;65202;52.520;10.528;2023-11-21T07:47:04;47.43;35.65;61.46;;
76382;Laerm;65202;52.520;10.528;2023-11-21T07:49:31;49.93;35.79;72.19;;
76382;Laerm;65202;52.520;10.528;2023-11-21T07:51:59;45.01;35.90;67.17;;
76382;Laerm;65202;52.520;10.528;2023-11-21T07:54:26;47.21;36.63;65.07;;
76382;Laerm;65202;52.520;10.528;2023-11-21T07:56:53;41.16;35.83;58.05;;
76382;Laerm;65202;52.520;10.528;2023-11-21T07:59:20;40.10;35.83;58.80;;
76382;Laerm;65202;52.520;10.528;2023-11-21T08:01:48;39.62;35.76;54.07;;
76382;Laerm;65202;52.520;10.528;2023-11-21T08:04:15;40.10;35.43;58.10;;
76382;Laerm;65202;52.520;10.528;2023-11-21T08:06:42;48.64;35.71;63.75;;
76382;Laerm;65202;52.520;10.528;2023-11-21T08:09:10;38.14;34.75;48.58;;
76382;Laerm;65202;52.520;10.528;2023-11-21T08:11:37;42.42;35.12;65.66;;
76382;Laerm;65202;52.520;10.528;2023-11-21T08:14:05;46.20;35.38;64.53;;
76382;Laerm;65202;52.520;10.528;2023-11-21T08:16:33;40.31;34.94;52.21;;
76382;Laerm;65202;52.520;10.528;2023-11-21T08:19:00;55.47;35.24;73.16;;
76382;Laerm;65202;52.520;10.528;2023-11-21T08:21:28;39.98;35.22;55.71;;
76382;Laerm;65202;52.520;10.528;2023-11-21T08:23:56;48.68;35.03;67.16;;
76382;Laerm;65202;52.520;10.528;2023-11-21T08:26:23;39.18;35.49;52.37;;
76382;Laerm;65202;52.520;10.528;2023-11-21T08:28:51;40.18;35.33;47.32;;
76382;Laerm;65202;52.520;10.528;2023-11-21T08:31:26;40.74;36.19;61.29;;
76382;Laerm;65202;52.520;10.528;2023-11-21T08:33:54;56.15;36.00;73.46;;
76382;Laerm;65202;52.520;10.528;2023-11-21T08:36:23;44.82;35.43;64.68;;
76382;Laerm;65202;52.520;10.528;2023-11-21T08:38:51;46.90;35.65;60.74;;
76382;Laerm;65202;52.520;10.528;2023-11-21T08:41:21;42.72;36.12;55.99;;
76382;Laerm;65202;52.520;10.528;2023-11-21T08:43:50;46.09;36.31;64.19;;
76382;Laerm;65202;52.520;10.528;2023-11-21T08:46:18;57.82;36.53;74.42;;
76382;Laerm;65202;52.520;10.528;2023-11-21T08:48:47;41.72;36.58;55.30;;
76382;Laerm;65202;52.520;10.528;2023-11-21T08:51:14;40.38;36.25;53.57;;
76382;Laerm;65202;52.520;10.528;2023-11-21T08:53:41;43.23;36.73;55.58;;
76382;Laerm;65202;52.520;10.528;2023-11-21T08:56:14;44.05;35.96;58.38;;
76382;Laerm;65202;52.520;10.528;2023-11-21T08:58:42;40.01;35.82;49.62;;
76382;Laerm;65202;52.520;10.528;2023-11-21T09:01:09;39.08;35.30;56.95;;
76382;Laerm;65202;52.520;10.528;2023-11-21T09:03:36;38.43;35.30;44.33;;
76382;Laerm;65202;52.520;10.528;2023-11-21T09:06:05;42.22;35.92;57.28;;
76382;Laerm;65202;52.520;10.528;2023-11-21T09:08:32;42.35;36.18;52.75;;
76382;Laerm;65202;52.520;10.528;2023-11-21T09:10:59;40.38;35.45;61.98;;
76382;Laerm;65202;52.520;10.528;2023-11-21T09:13:27;49.11;35.18;64.30;;
76382;Laerm;65202;52.520;10.528;2023-11-21T09:15:54;40.94;35.45;57.86;;
76382;Laerm;65202;52.520;10.528;2023-11-21T09:18:22;40.32;35.98;48.51;;
76382;Laerm;65202;52.520;10.528;2023-11-21T09:20:49;47.00;36.15;65.16;;
76382;Laerm;65202;52.520;10.528;2023-11-21T09:23:16;42.93;36.06;54.17;;
76382;Laerm;65202;52.520;10.528;2023-11-21T09:25:43;40.80;35.35;59.23;;
76382;Laerm;65202;52.520;10.528;2023-11-21T09:28:13;44.43;35.92;58.14;;
76382;Laerm;65202;52.520;10.528;2023-11-21T09:30:40;49.36;35.93;60.74;;
76382;Laerm;65202;52.520;10.528;2023-11-21T09:33:09;46.73;36.18;63.11;;
76382;Laerm;65202;52.520;10.528;2023-11-21T09:35:38;44.51;36.08;61.70;;
76382;Laerm;65202;52.520;10.528;2023-11-21T09:38:05;46.42;35.48;61.09;;
76382;Laerm;65202;52.520;10.528;2023-11-21T09:40:37;47.50;35.53;61.85;;
76382;Laerm;65202;52.520;10.528;2023-11-21T09:43:17;41.72;36.59;49.34;;
76382;Laerm;65202;52.520;10.528;2023-11-21T09:45:47;47.20;35.60;66.36;;
76382;Laerm;65202;52.520;10.528;2023-11-21T09:48:16;43.47;36.13;55.72;;
76382;Laerm;65202;52.520;10.528;2023-11-21T09:50:46;46.80;36.05;62.24;;
76382;Laerm;65202;52.520;10.528;2023-11-21T09:53:21;46.70;36.33;62.70;;
76382;Laerm;65202;52.520;10.528;2023-11-21T09:55:53;41.69;35.95;57.75;;
76382;Laerm;65202;52.520;10.528;2023-11-21T09:58:21;52.91;36.16;73.42;;
76382;Laerm;65202;52.520;10.528;2023-11-21T10:00:55;46.89;36.41;64.97;;
76382;Laerm;65202;52.520;10.528;2023-11-21T10:03:23;43.62;36.91;63.47;;
76382;Laerm;65202;52.520;10.528;2023-11-21T10:05:53;43.21;37.45;55.45;;
76382;Laerm;65202;52.520;10.528;2023-11-21T10:08:24;46.58;36.57;70.95;;
76382;Laerm;65202;52.520;10.528;2023-11-21T10:10:59;41.66;36.00;59.77;;
76382;Laerm;65202;52.520;10.528;2023-11-21T10:13:30;45.03;36.22;58.38;;
76382;Laerm;65202;52.520;10.528;2023-11-21T10:15:59;45.75;36.11;60.30;;
76382;Laerm;65202;52.520;10.528;2023-11-21T10:18:27;47.13;41.71;64.13;;
76382;Laerm;65202;52.520;10.528;2023-11-21T10:20:55;49.75;39.09;71.27;;
76382;Laerm;65202;52.520;10.528;2023-11-21T10:23:23;50.20;38.48;69.17;;
76382;Laerm;65202;52.520;10.528;2023-11-21T10:25:52;50.40;38.27;64.39;;
76382;Laerm;65202;52.520;10.528;2023-11-21T10:28:21;49.53;38.14;66.99;;
76382;Laerm;65202;52.520;10.528;2023-11-21T10:30:49;42.34;37.09;56.22;;
76382;Laerm;65202;52.520;10.528;2023-11-21T10:33:16;46.79;37.16;63.06;;
76382;Laerm;65202;52.520;10.528;2023-11-21T10:35:44;44.19;37.16;61.77;;
76382;Laerm;65202;52.520;10.528;2023-11-21T10:38:14;46.03;38.26;61.74;;
76382;Laerm;65202;52.520;10.528;2023-11-21T10:40:41;41.94;36.18;51.96;;
76382;Laerm;65202;52.520;10.528;2023-11-21T10:43:09;49.01;37.89;66.14;;
76382;Laerm;65202;52.520;10.528;2023-11-21T10:45:37;43.47;36.96;62.51;;
76382;Laerm;65202;52.520;10.528;2023-11-21T10:48:07;48.28;36.27;63.89;;
76382;Laerm;65202;52.520;10.528;2023-11-21T10:50:48;41.91;35.83;58.04;;
76382;Laerm;65202;52.520;10.528;2023-11-21T10:53:15;43.68;35.50;58.94;;
76382;Laerm;65202;52.520;10.528;2023-11-21T10:55:43;39.81;36.01;50.13;;
76382;Laerm;65202;52.520;10.528;2023-11-21T10:58:14;45.42;36.26;62.33;;
76382;Laerm;65202;52.520;10.528;2023-11-21T11:00:42;46.36;36.69;61.30;;
76382;Laerm;65202;52.520;10.528;2023-11-21T11:03:12;45.71;35.42;59.70;;
76382;Laerm;65202;52.520;10.528;2023-11-21T11:05:44;41.47;35.10;53.14;;
76382;Laerm;65202;52.520;10.528;2023-11-21T11:08:22;47.18;35.03;63.72;;
76382;Laerm;65202;52.520;10.528;2023-11-21T11:10:55;47.10;36.30;58.40;;
76382;Laerm;65202;52.520;10.528;2023-11-21T11:13:23;50.74;45.81;61.19;;
76382;Laerm;65202;52.520;10.528;2023-11-21T11:15:58;50.14;37.43;63.59;;
76382;Laerm;65202;52.520;10.528;2023-11-21T11:18:28;50.07;43.85;62.47;;
76382;Laerm;65202;52.520;10.528;2023-11-21T11:21:54;52.97;42.78;68.88;;
76382;Laerm;65202;52.520;10.528;2023-11-21T11:27:56;42.39;35.30;60.78;;
76382;Laerm;65202;52.520;10.528;2023-11-21T11:30:50;42.11;36.04;58.65;;
76382;Laerm;65202;52.520;10.528;2023-11-21T11:38:46;49.71;36.43;68.38;;
76382;Laerm;65202;52.520;10.528;2023-11-21T11:41:25;49.45;35.92;66.17;;
76382;Laerm;65202;52.520;10.528;2023-11-21T11:43:54;49.17;36.49;68.50;;
76382;Laerm;65202;52.520;10.528;2023-11-21T11:46:41;43.94;35.56;60.56;;
76382;Laerm;65202;52.520;10.528;2023-11-21T11:49:09;47.93;35.92;67.97;;
76382;Laerm;65202;52.520;10.528;2023-11-21T11:51:36;49.40;36.21;62.04;;
76382;Laerm;65202;52.520;10.528;2023-11-21T11:54:05;44.11;35.71;58.79;;
76382;Laerm;65202;52.520;10.528;2023-11-21T11:56:34;42.65;37.27;52.72;;
76382;Laerm;65202;52.520;10.528;2023-11-21T11:59:03;46.56;35.49;62.74;;
76382;Laerm;65202;52.520;10.528;2023-11-21T12:01:34;43.36;36.81;56.17;;
76382;Laerm;65202;52.520;10.528;2023-11-21T12:04:25;41.64;35.96;55.94;;
76382;Laerm;65202;52.520;10.528;2023-11-21T12:07:01;47.13;37.40;62.83;;
76382;Laerm;65202;52.520;10.528;2023-11-21T12:09:31;49.79;37.75;67.14;;
76382;Laerm;65202;52.520;10.528;2023-11-21T12:12:00;41.35;36.12;57.89;;
76382;Laerm;65202;52.520;10.528;2023-11-21T12:14:28;42.53;36.21;53.89;;
76382;Laerm;65202;52.520;10.528;2023-11-21T12:16:56;48.02;36.33;64.67;;
76382;Laerm;65202;52.520;10.528;2023-11-21T12:19:23;46.59;36.40;63.60;;
76382;Laerm;65202;52.520;10.528;2023-11-21T12:21:51;47.87;36.90;65.38;;
76382;Laerm;65202;52.520;10.528;2023-11-21T12:24:19;46.24;36.42;63.17;;
76382;Laerm;65202;52.520;10.528;2023-11-21T12:26:46;40.79;35.86;52.99;;
76382;Laerm;65202;52.520;10.528;2023-11-21T12:29:13;48.73;36.26;65.37;;
76382;Laerm;65202;52.520;10.528;2023-11-21T12:31:40;47.16;36.22;64.17;;
76382;Laerm;65202;52.520;10.528;2023-11-21T12:34:08;48.00;37.23;64.50;;
76382;Laerm;65202;52.520;10.528;2023-11-21T12:36:39;45.10;35.94;68.43;;
76382;Laerm;65202;52.520;10.528;2023-11-21T12:39:07;45.16;36.47;60.48;;
76382;Laerm;65202;52.520;10.528;2023-11-21T12:41:36;42.86;35.81;61.37;;
76382;Laerm;65202;52.520;10.528;2023-11-21T12:44:04;50.61;35.59;69.01;;
76382;Laerm;65202;52.520;10.528;2023-11-21T12:46:36;43.03;36.93;54.09;;
76382;Laerm;65202;52.520;10.528;2023-11-21T12:49:07;51.78;36.46;66.73;;
76382;Laerm;65202;52.520;10.528;2023-11-21T12:51:34;43.23;36.80;56.43;;
76382;Laerm;65202;52.520;10.528;2023-11-21T12:54:02;45.78;35.47;63.40;;
76382;Laerm;65202;52.520;10.528;2023-11-21T12:56:29;41.04;36.06;52.79;;
76382;Laerm;65202;52.520;10.528;2023-11-21T12:58:57;43.42;36.27;61.39;;
76382;Laerm;65202;52.520;10.528;2023-11-21T13:01:26;45.16;37.02;61.66;;
76382;Laerm;65202;52.520;10.528;2023-11-21T13:03:57;42.13;35.95;55.85;;
76382;Laerm;65202;52.520;10.528;2023-11-21T13:06:31;39.57;35.66;54.11;;
76382;Laerm;65202;52.520;10.528;2023-11-21T13:09:01;43.12;35.32;57.14;;
76382;Laerm;65202;52.520;10.528;2023-11-21T13:11:34;43.79;35.87;67.36;;
76382;Laerm;65202;52.520;10.528;2023-11-21T13:14:02;43.46;36.48;54.78;;
76382;Laerm;65202;52.520;10.528;2023-11-21T13:16:30;41.91;35.84;55.35;;
76382;Laerm;65202;52.520;10.528;2023-11-21T13:18:59;39.08;35.57;52.53;;
76382;Laerm;65202;52.520;10.528;2023-11-21T13:21:26;49.90;37.18;67.22;;
76382;Laerm;65202;52.520;10.528;2023-11-21T13:23:54;42.34;35.06;56.07;;
76382;Laerm;65202;52.520;10.528;2023-11-21T13:26:23;44.44;36.62;63.40;;
76382;Laerm;65202;52.520;10.528;2023-11-21T13:28:53;46.55;35.57;62.01;;
76382;Laerm;65202;52.520;10.528;2023-11-21T13:31:21;44.96;35.97;74.64;;
76382;Laerm;65202;52.520;10.528;2023-11-21T13:33:50;40.06;35.70;51.91;;
76382;Laerm;65202;52.520;10.528;2023-11-21T13:36:26;42.34;35.19;65.98;;
76382;Laerm;65202;52.520;10.528;2023-11-21T13:38:57;41.16;35.64;64.43;;
76382;Laerm;65202;52.520;10.528;2023-11-21T13:41:25;45.16;35.44;63.70;;
76382;Laerm;65202;52.520;10.528;2023-11-21T13:43:59;43.18;35.10;71.43;;
76382;Laerm;65202;52.520;10.528;2023-11-21T13:46:39;45.64;35.41;64.09;;
76382;Laerm;65202;52.520;10.528;2023-11-21T13:49:06;41.12;35.51;53.09;;
76382;Laerm;65202;52.520;10.528;2023-11-21T13:51:37;45.27;37.38;58.57;;